Data for 11/26/2009

Time Sea-Level Adjusted Pressure Absolute Pressure Temperature Relative Humidity Dew Point   
(mb) (inHg) (mb) (inHg) (C) (F) (%) (C) (F)
00:05 1024 30.24 853 25.19 1.6 34.9 63 -4.6 23.7
00:10 1024 30.24 853 25.19 1.1 34 65 -4.7 23.5
00:15 1024 30.24 853 25.19 0.5 32.9 69 -4.6 23.8
00:20 1024 30.24 853 25.19 0.7 33.3 67 -4.7 23.6
00:25 1024 30.24 853 25.19 1 33.9 66 -4.7 23.6
00:30 1024 30.24 853 25.19 1.7 35 63 -4.6 23.7
00:35 1024 30.24 853 25.19 2 35.5 63 -4.4 24.1
00:40 1024 30.24 853 25.19 1.5 34.7 64 -4.6 23.8
00:45 1024 30.24 853 25.19 1.4 34.5 64 -4.7 23.5
00:50 1024 30.24 853 25.19 1.8 35.2 63 -4.5 23.9
00:55 1024 30.24 853 25.19 1.6 34.8 64 -4.5 23.9
01:00 1024 30.24 853 25.19 1.2 34.2 65 -4.7 23.6
01:05 1024 30.24 853 25.19 0.9 33.5 66 -4.7 23.5
01:10 1024 30.24 853 25.19 0.9 33.7 66 -4.8 23.4
01:15 1024 30.24 853 25.19 1.5 34.7 64 -4.6 23.7
01:20 1024 30.24 853 25.19 1.6 34.9 63 -4.7 23.5
01:25 1024 30.24 853 25.19 1.9 35.5 63 -4.3 24.2
01:30 1024 30.24 853 25.19 1.7 35.1 62 -4.7 23.5
01:35 1023 30.21 853 25.19 1.4 34.6 64 -4.7 23.5
01:40 1023 30.21 852 25.16 0.6 33.1 66 -4.9 23.1
01:45 1023 30.21 852 25.16 0 32.1 69 -5 22.9
01:50 1023 30.21 852 25.16 -0.2 31.6 70 -5 23
01:55 1023 30.21 852 25.16 0 32 69 -5.1 22.9
02:00 1023 30.21 852 25.16 -0.1 31.8 68 -5.3 22.5
02:05 1023 30.21 852 25.16 0.3 32.5 67 -5 23
02:10 1023 30.21 852 25.16 0.9 33.7 66 -4.7 23.5
02:15 1023 30.21 852 25.16 0.9 33.5 66 -4.8 23.3
02:20 1023 30.21 852 25.16 1.3 34.3 64 -4.7 23.5
02:25 1023 30.21 852 25.16 1.3 34.4 64 -4.8 23.4
02:30 1023 30.21 852 25.16 1.2 34.2 65 -4.7 23.5
02:35 1023 30.21 852 25.16 1.3 34.4 64 -4.8 23.4
02:40 1023 30.21 852 25.16 0.8 33.4 66 -4.8 23.4
02:45 1023 30.21 852 25.16 0.4 32.8 67 -5.1 22.9
02:50 1023 30.21 852 25.16 0.3 32.5 67 -5.2 22.7
02:55 1023 30.21 852 25.16 -0.2 31.7 69 -5.1 22.9
03:00 1023 30.21 852 25.16 0.1 32.2 66 -5.4 22.2
03:05 1023 30.21 852 25.16 1.3 34.3 64 -4.8 23.3
03:10 1023 30.21 852 25.16 1 33.8 63 -5.2 22.7
03:15 1023 30.21 852 25.16 1.5 34.6 64 -4.7 23.6
03:20 1023 30.21 852 25.16 1.1 34 65 -4.8 23.4
03:25 1023 30.21 852 25.16 1 33.8 64 -5 23
03:30 1022 30.18 852 25.16 0.6 33.1 66 -4.9 23.1
03:35 1022 30.18 852 25.16 0.4 32.8 67 -5 23
03:40 1022 30.18 852 25.16 0.5 32.8 66 -5.1 22.8
03:45 1022 30.18 852 25.16 0.6 33.1 66 -5 22.9
03:50 1022 30.18 851 25.13 0.5 33 67 -5 23.1
03:55 1022 30.18 851 25.13 0.7 33.3 65 -5 23
04:00 1022 30.18 851 25.13 0.7 33.2 66 -5 23
04:05 1022 30.18 851 25.13 0.1 32.3 68 -5.2 22.7
04:10 1022 30.18 851 25.13 -0.1 31.7 68 -5.3 22.4
04:15 1022 30.18 851 25.13 0 32.1 67 -5.4 22.3
04:20 1022 30.18 851 25.13 0.5 32.8 65 -5.4 22.3
04:25 1022 30.18 851 25.13 0.9 33.6 63 -5.3 22.5
04:30 1022 30.18 851 25.13 1.2 34.1 63 -5.1 22.8
04:35 1022 30.18 851 25.13 1.2 34.1 63 -5.2 22.7
04:40 1022 30.18 851 25.13 1 33.7 64 -5 22.9
04:45 1022 30.18 851 25.13 0.6 33.1 65 -5.3 22.5
04:50 1022 30.18 851 25.13 0.5 32.9 65 -5.3 22.5
04:55 1022 30.18 851 25.13 0.4 32.6 66 -5.4 22.4
05:00 1022 30.18 851 25.13 0.5 33 65 -5.4 22.3
05:05 1022 30.18 851 25.13 1 33.9 62 -5.5 22.2
05:10 1022 30.18 851 25.13 1.6 34.8 60 -5.3 22.5
05:15 1022 30.18 851 25.13 1.7 35 61 -5.1 22.9
05:20 1022 30.18 851 25.13 1.7 35 60 -5.2 22.6
05:25 1022 30.18 851 25.13 1.6 34.9 60 -5.2 22.6
05:30 1022 30.18 851 25.13 1.2 34.2 62 -5.2 22.7
05:35 1022 30.18 851 25.13 0.3 32.5 66 -5.4 22.3
05:40 1022 30.18 851 25.13 0.2 32.3 64 -5.8 21.5
05:45 1022 30.18 851 25.13 0.2 32.3 65 -5.6 22
05:50 1022 30.18 851 25.13 0.1 32.2 67 -5.2 22.6
05:55 1022 30.18 851 25.13 -0.1 31.8 68 -5.3 22.5
06:00 1022 30.18 851 25.13 -0.1 31.9 68 -5.2 22.7
06:05 1022 30.18 851 25.13 -0.3 31.4 70 -5.2 22.6
06:10 1022 30.18 851 25.13 -0.3 31.4 67 -5.6 21.9
06:15 1022 30.18 851 25.13 -0.1 31.8 67 -5.6 22
06:20 1022 30.18 851 25.13 0.3 32.5 65 -5.6 21.9
06:25 1022 30.18 851 25.13 0.3 32.6 65 -5.4 22.2
06:30 1022 30.18 851 25.13 -0.1 31.9 68 -5.4 22.3
06:35 1022 30.18 851 25.13 -0.9 30.4 70 -5.6 21.9
06:40 1022 30.18 851 25.13 -0.5 31.1 70 -5.4 22.3
06:45 1022 30.18 851 25.13 -0.8 30.6 71 -5.4 22.2
06:50 1022 30.18 851 25.13 -0.7 30.7 69 -5.6 21.8
06:55 1022 30.18 851 25.13 -0.4 31.2 69 -5.5 22.1
07:00 1022 30.18 851 25.13 -1 30.1 73 -5.3 22.4
07:05 1022 30.18 851 25.13 -1 30.2 71 -5.6 21.8
07:10 1022 30.18 851 25.13 -0.5 31 69 -5.6 21.9
07:15 1022 30.18 851 25.13 -0.4 31.3 69 -5.4 22.3
07:20 1021 30.15 851 25.13 -0.2 31.7 68 -5.3 22.4
07:25 1021 30.15 851 25.13 -0.8 30.6 71 -5.4 22.3
07:30 1021 30.15 851 25.13 -1.7 29 75 -5.5 22.1
07:35 1021 30.15 851 25.13 -1 30.2 70 -5.9 21.4
07:40 1021 30.15 850 25.1 0.1 32.2 66 -5.5 22.1
07:45 1021 30.15 850 25.1 0.2 32.4 65 -5.6 21.9
07:50 1021 30.15 850 25.1 0.6 33.1 64 -5.5 22.1
07:55 1021 30.15 850 25.1 0.2 32.3 65 -5.6 21.9
08:00 1021 30.15 850 25.1 -0.1 31.9 66 -5.8 21.6
08:05 1021 30.15 850 25.1 -0.2 31.6 66 -5.8 21.5
08:10 1021 30.15 850 25.1 -0.1 31.9 64 -6 21.2
08:15 1021 30.15 850 25.1 0.3 32.5 64 -5.8 21.6
08:20 1021 30.15 850 25.1 0.7 33.2 61 -6 21.3
08:25 1021 30.15 850 25.1 0.9 33.6 60 -6 21.2
08:30 1021 30.15 850 25.1 1.3 34.3 59 -5.9 21.3
08:35 1021 30.15 850 25.1 1.6 35 57 -5.9 21.3
08:40 1021 30.15 850 25.1 1.9 35.5 57 -5.7 21.7
08:45 1021 30.15 850 25.1 1.9 35.5 56 -5.9 21.5
08:50 1021 30.15 850 25.1 2.1 35.8 56 -5.9 21.5
08:55 1021 30.15 850 25.1 2.5 36.4 54 -6 21.3
09:00 1021 30.15 850 25.1 2.9 37.3 52 -6 21.2
09:05 1021 30.15 850 25.1 2.9 37.2 53 -5.8 21.6
09:10 1021 30.15 850 25.1 2.7 36.9 53 -5.9 21.4
09:15 1021 30.15 850 25.1 3.1 37.7 52 -5.7 21.7
09:20 1021 30.15 850 25.1 3.2 37.8 53 -5.5 22.1
09:25 1021 30.15 850 25.1 1.5 34.8 59 -5.7 21.8
09:30 1021 30.15 850 25.1 1.7 35 57 -5.9 21.5
09:35 1021 30.15 850 25.1 1.8 35.2 56 -6 21.3
09:40 1021 30.15 850 25.1 2.2 36 55 -5.8 21.5
09:45 1021 30.15 850 25.1 3 37.4 52 -6 21.1
09:50 1021 30.15 850 25.1 3.8 38.8 50 -5.8 21.6
09:55 1021 30.15 850 25.1 4.2 39.5 49 -5.7 21.8
10:00 1021 30.15 850 25.1 4.8 40.6 49 -5.2 22.7
10:05 1021 30.15 850 25.1 5.1 41.2 46 -5.4 22.2
10:10 1021 30.15 850 25.1 5.4 41.7 47 -5.1 22.8
10:15 1021 30.15 850 25.1 5.4 41.7 47 -5 23
10:20 1021 30.15 850 25.1 5 40.9 49 -4.9 23.2
10:25 1021 30.15 850 25.1 4.9 40.9 49 -4.9 23.3
10:30 1021 30.15 850 25.1 4.2 39.5 53 -4.6 23.7
10:35 1021 30.15 850 25.1 4.2 39.5 51 -5.1 22.8
10:40 1021 30.15 850 25.1 4.6 40.3 49 -5.1 22.7
10:45 1021 30.15 850 25.1 4.8 40.7 48 -5.2 22.6
10:50 1021 30.15 850 25.1 5.1 41.2 49 -4.6 23.6
10:55 1021 30.15 850 25.1 4.9 40.8 49 -4.8 23.3
11:00 1021 30.15 850 25.1 4.5 40.2 50 -5 23
11:05 1021 30.15 850 25.1 4.2 39.6 52 -4.7 23.6
11:10 1020 30.12 850 25.1 3.5 38.4 53 -5.1 22.8
11:15 1020 30.12 850 25.1 3.6 38.4 53 -5.1 22.9
11:20 1020 30.12 850 25.1 3.1 37.6 54 -5.3 22.4
11:25 1020 30.12 850 25.1 3.3 38 51 -5.8 21.6
11:30 1020 30.12 850 25.1 3 37.3 55 -5.2 22.6
11:35 1020 30.12 849 25.07 3.4 38 53 -5.3 22.5
11:40 1020 30.12 849 25.07 3.2 37.8 53 -5.5 22.1
11:45 1020 30.12 849 25.07 4.1 39.4 50 -5.3 22.5
11:50 1020 30.12 849 25.07 4.5 40.1 49 -5.4 22.3
11:55 1020 30.12 849 25.07 5.7 42.3 45 -5.3 22.4
12:00 1020 30.12 849 25.07 6.7 44 42 -5.3 22.5
12:05 1020 30.12 849 25.07 7.6 45.7 41 -4.7 23.6
12:10 1020 30.12 849 25.07 7.2 44.9 43 -4.5 23.9
12:15 1020 30.12 849 25.07 6.4 43.6 45 -4.7 23.5
12:20 1020 30.12 849 25.07 5.9 42.6 46 -4.8 23.4
12:25 1019 30.09 849 25.07 6 42.8 46 -4.8 23.3
12:30 1019 30.09 849 25.07 6.5 43.7 44 -4.8 23.3
12:35 1019 30.09 849 25.07 6.4 43.6 45 -4.5 23.9
12:40 1019 30.09 848 25.04 6.1 43 45 -4.9 23.2
12:45 1019 30.09 848 25.04 6.1 43 46 -4.8 23.4
12:50 1019 30.09 848 25.04 5.7 42.3 47 -4.7 23.5
12:55 1019 30.09 848 25.04 5.8 42.4 46 -4.9 23.2
13:00 1019 30.09 848 25.04 5.7 42.3 48 -4.6 23.8
13:05 1019 30.09 848 25.04 5.8 42.4 46 -4.8 23.4
13:10 1019 30.09 848 25.04 5.7 42.3 47 -4.8 23.4
13:15 1019 30.09 848 25.04 5.6 42.2 47 -4.7 23.6
13:20 1019 30.09 848 25.04 5.9 42.7 45 -5.1 22.8
13:25 1019 30.09 848 25.04 6 42.8 46 -4.8 23.3
13:30 1019 30.09 848 25.04 5.9 42.7 45 -5.1 22.8
13:35 1019 30.09 848 25.04 6.1 43 45 -5 23.1
13:40 1018 30.06 848 25.04 5.9 42.7 44 -5.2 22.6
13:45 1018 30.06 848 25.04 6.1 42.9 43 -5.5 22
13:50 1018 30.06 848 25.04 5.9 42.7 45 -5.1 22.8
13:55 1018 30.06 847 25.01 6.9 44.4 42 -5.2 22.6
14:00 1018 30.06 847 25.01 7.2 45 42 -4.9 23.2
14:05 1018 30.06 847 25.01 7.5 45.5 41 -4.9 23.1
14:10 1018 30.06 847 25.01 7.2 45 42 -4.8 23.3
14:15 1018 30.06 847 25.01 7.8 46 39 -5.4 22.3
14:20 1018 30.06 847 25.01 8.2 46.8 37 -5.6 22
14:25 1018 30.06 847 25.01 7.9 46.2 39 -5.1 22.9
14:30 1018 30.06 847 25.01 7.7 45.9 40 -5.2 22.7
14:35 1018 30.06 847 25.01 7.9 46.3 38 -5.5 22.1
14:40 1018 30.06 847 25.01 8.2 46.8 37 -5.7 21.8
14:45 1018 30.06 847 25.01 8.1 46.6 36 -6 21.2
14:50 1018 30.06 847 25.01 7.7 45.9 37 -5.9 21.4
14:55 1018 30.06 847 25.01 7.3 45.2 39 -5.8 21.6
15:00 1018 30.06 847 25.01 7.5 45.5 38 -5.8 21.6
15:05 1018 30.06 847 25.01 7.5 45.6 39 -5.4 22.2
15:10 1018 30.06 847 25.01 7.6 45.7 40 -5 23
15:15 1018 30.06 847 25.01 7.4 45.3 39 -5.6 21.9
15:20 1017 30.03 847 25.01 7.6 45.6 38 -6 21.3
15:25 1017 30.03 847 25.01 8.3 46.9 36 -5.8 21.5
15:30 1017 30.03 847 25.01 8.9 48.1 38 -4.8 23.4
15:35 1017 30.03 847 25.01 8.1 46.6 43 -3.6 25.5
15:40 1017 30.03 847 25.01 7.9 46.2 44 -3.6 25.5
15:45 1017 30.03 847 25.01 7.3 45.2 49 -2.8 27
15:50 1017 30.03 847 25.01 6.8 44.2 49 -3.2 26.3
15:55 1017 30.03 847 25.01 6.6 44 52 -2.6 27.3
16:00 1017 30.03 847 25.01 6.1 43 54 -2.5 27.6
16:05 1017 30.03 846 24.98 5.5 41.9 57 -2.4 27.7
16:10 1017 30.03 846 24.98 5 41.1 57 -2.9 26.8
16:15 1017 30.03 846 24.98 4.5 40.2 58 -3 26.7
16:20 1017 30.03 846 24.98 4.3 39.8 60 -2.8 27
16:25 1017 30.03 846 24.98 4.3 39.8 60 -2.8 27
16:30 1017 30.03 846 24.98 4.1 39.4 60 -2.9 26.9
16:35 1017 30.03 846 24.98 3.9 39.1 59 -3.4 25.9
16:40 1017 30.03 846 24.98 3.9 39 58 -3.5 25.7
16:45 1017 30.03 846 24.98 3.8 38.8 58 -3.7 25.3
16:50 1017 30.03 846 24.98 3.7 38.7 54 -4.8 23.3
16:55 1017 30.03 846 24.98 3.9 39.1 53 -4.8 23.4
17:00 1017 30.03 846 24.98 4.2 39.5 57 -3.6 25.6
17:05 1017 30.03 846 24.98 4.1 39.5 55 -4 24.8
17:10 1017 30.03 846 24.98 4.3 39.8 52 -4.7 23.6
17:15 1017 30.03 846 24.98 4 39.2 57 -3.7 25.3
17:20 1017 30.03 846 24.98 3.4 38 55 -4.9 23.2
17:25 1017 30.03 846 24.98 3.3 37.9 56 -4.7 23.5
17:30 1017 30.03 846 24.98 3.1 37.6 55 -5.1 22.8
17:35 1017 30.03 846 24.98 3.5 38.3 52 -5.3 22.4
17:40 1017 30.03 846 24.98 3.8 38.8 52 -5.2 22.7
17:45 1017 30.03 846 24.98 3.5 38.3 54 -4.9 23.2
17:50 1017 30.03 846 24.98 3.6 38.5 53 -5.2 22.7
17:55 1016 30 846 24.98 3.8 38.9 51 -5.4 22.3
18:00 1016 30 846 24.98 4.1 39.5 50 -5.4 22.2
18:05 1016 30 846 24.98 4.4 40 48 -5.5 22
18:10 1016 30 846 24.98 4.8 40.6 46 -5.7 21.7
18:15 1016 30 846 24.98 5.2 41.3 46 -5.6 22
18:20 1016 30 846 24.98 5.1 41.1 48 -5.1 22.8
18:25 1016 30 846 24.98 4.3 39.8 48 -5.6 21.9
18:30 1016 30 845 24.95 4.6 40.3 48 -5.4 22.3
18:35 1016 30 845 24.95 4.1 39.4 47 -6.1 21.1
18:40 1016 30 846 24.98 4.8 40.7 49 -5.1 22.9
18:45 1016 30 846 24.98 5 41 44 -6.1 21
18:50 1016 30 846 24.98 5.6 42 41 -6.5 20.3
18:55 1016 30 846 24.98 6 42.7 46 -4.9 23.2
19:00 1016 30 846 24.98 4.2 39.6 52 -4.7 23.6
19:05 1016 30 846 24.98 3 37.4 55 -5 22.9
19:10 1016 30 846 24.98 2.6 36.8 55 -5.4 22.3
19:15 1016 30 846 24.98 3 37.4 53 -5.7 21.7
19:20 1016 30 845 24.95 3.2 37.7 55 -5 23.1
19:25 1016 30 845 24.95 2.7 36.8 57 -5 22.9
19:30 1016 30 845 24.95 2 35.5 59 -5.3 22.4
19:35 1016 30 845 24.95 1.9 35.4 60 -5.1 22.8
19:40 1016 30 845 24.95 2.1 35.7 58 -5.3 22.5
19:45 1016 30 845 24.95 2.4 36.2 56 -5.5 22.1
19:50 1016 30 845 24.95 2.7 36.8 55 -5.6 21.9
19:55 1016 30 845 24.95 2.8 37.1 53 -5.8 21.5
20:00 1016 30 845 24.95 2.9 37.2 54 -5.5 22.2
20:05 1016 30 845 24.95 3 37.5 53 -5.5 22
20:10 1016 30 845 24.95 2.3 36.1 60 -4.8 23.4
20:15 1016 30 845 24.95 1.1 34 63 -5.1 22.8
20:20 1016 30 845 24.95 1.5 34.8 59 -5.5 22
20:25 1016 30 845 24.95 1.7 35 56 -6.1 21
20:30 1016 30 845 24.95 2.9 37.3 53 -5.8 21.6
20:35 1016 30 845 24.95 3 37.5 53 -5.7 21.7
20:40 1016 30 845 24.95 2.8 37.1 56 -5.2 22.7
20:45 1016 30 845 24.95 2.6 36.6 54 -5.9 21.3
20:50 1016 30 845 24.95 2.6 36.7 54 -5.9 21.4
20:55 1016 30 845 24.95 3.1 37.5 50 -6.2 20.8
21:00 1016 30 845 24.95 3 37.3 54 -5.4 22.4
21:05 1016 30 845 24.95 2.7 36.8 55 -5.4 22.2
21:10 1016 30 845 24.95 2.7 36.9 52 -6.2 20.9
21:15 1016 30 845 24.95 2.9 37.2 50 -6.6 20.1
21:20 1016 30 845 24.95 3.2 37.7 52 -5.7 21.8
21:25 1016 30 845 24.95 3.5 38.2 48 -6.5 20.3
21:30 1016 30 845 24.95 3.2 37.7 54 -5.3 22.4
21:35 1016 30 845 24.95 2.4 36.2 57 -5.4 22.2
21:40 1016 30 845 24.95 2.1 35.7 57 -5.6 22
21:45 1016 30 845 24.95 2.3 36.2 53 -6.2 20.9
21:50 1016 30 845 24.95 2.3 36.1 55 -5.9 21.4
21:55 1016 30 845 24.95 2.1 35.7 54 -6.2 20.8
22:00 1016 30 845 24.95 2.6 36.6 54 -5.7 21.7
22:05 1016 30 845 24.95 2.6 36.7 55 -5.5 22
22:10 1016 30 845 24.95 2.1 35.8 55 -5.9 21.4
22:15 1016 30 845 24.95 1.7 35 57 -5.9 21.4
22:20 1016 30 845 24.95 1.6 34.8 58 -5.8 21.5
22:25 1016 30 845 24.95 1.6 34.9 59 -5.6 21.9
22:30 1016 30 845 24.95 1.3 34.4 59 -5.9 21.3
22:35 1016 30 845 24.95 1.5 34.6 59 -5.8 21.6
22:40 1015 29.97 845 24.95 1.4 34.5 59 -5.8 21.6
22:45 1016 30 845 24.95 1.4 34.5 59 -5.8 21.5
22:50 1015 29.97 845 24.95 1.9 35.4 55 -6.2 20.9
22:55 1015 29.97 845 24.95 2.2 36 54 -6.2 20.8
23:00 1015 29.97 845 24.95 2.5 36.5 52 -6.3 20.6
23:05 1015 29.97 845 24.95 2.8 37.1 52 -6.1 20.9
23:10 1015 29.97 844 24.92 2.7 36.9 54 -5.8 21.6
23:15 1015 29.97 845 24.95 2.7 36.8 54 -5.8 21.6
23:20 1015 29.97 845 24.95 3 37.3 52 -6.1 21.1
23:25 1015 29.97 845 24.95 2.9 37.3 51 -6.2 20.9
23:30 1015 29.97 845 24.95 2.5 36.5 56 -5.4 22.2
23:35 1015 29.97 845 24.95 2.4 36.3 53 -6.3 20.6
23:40 1015 29.97 845 24.95 3 37.4 51 -6.2 20.8
23:45 1015 29.97 844 24.92 2.6 36.7 52 -6.4 20.5
23:50 1015 29.97 844 24.92 2.7 36.9 52 -6.1 20.9
23:55 1015 29.97 844 24.92 2.9 37.3 54 -5.4 22.2
24:00 1015 29.97 844 24.92 2.7 36.8 53 -5.9 21.3